Wednesday, August 24, 2016
16:16 UTC
  |  Log In   |  Register Free
Airport Search:

Corpus Christi International Airport
(KCRP)

FAA data valid effective Jul 21 2016 - Sep 15 2016 (unless otherwise noted).

 
 
 
 
 
 
 
 
 
 
 
 
 
 
Current Aviation Weather for KCRP

Weather Summary


The most recent METAR observation for CRP was updated at: 12:51 UTC
METAR for CRP is not available. Closest METAR is for
METAR

METAR KCRP 241551Z 19010KT 10SM FEW029 FEW250 33/23 A3010 RMK AO2 SLP192 T03280228

METAR KCRP 241451Z 17010KT 10SM SCT020 31/24 A3010 RMK AO2 SLP191 T03060244 53009

METAR KCRP 241351Z 17009KT 10SM FEW012 FEW025 28/26 A3009 RMK AO2 SLP187 TCU DSNT NE T02830256

METAR KALI 241553Z 17011KT 10SM CLR 31/23 A3010 RMK AO2 SLP188 T03110233 TSNO

METAR KNGP 241556Z 16013KT 10SM FEW022 FEW250 32/26 A3011 RMK AO2 SLP195 T03170256

METAR KNOG 241556Z 17012KT 10SM SCT027 31/25 A3011 RMK AO2 SLP176 T03110250

TAF for CRP is not available.
TAF

KCRP - TAF KCRP 241121Z 2412/2512 16006KT P6SM SCT020

KCRP - FM241500 17015G22KT P6SM FEW035

KCRP - FM242000 14016G23KT P6SM FEW050

KCRP - FM250100 14013KT P6SM SKC

KCRP - FM250800 15007KT P6SM SCT025 =

KNGP - TAF KNGP 2415/2515 16012G18KT 9999 SCT020 SCT250 QNH3006INS

KNGP - TEMPO 2417/2419 16016G24KT

KNGP - FM241900 14016G24KT 9999 FEW025 FEW250 QNH2996INS

KNGP - TEMPO 2419/2501 13018G24KT

KNGP - FM250200 15012G18KT 9999 FEW015 SCT250 QNH3001INS

KNGP - FM250500 16007KT 9999 FEW020 BKN250 QNH2999INS

KNGP - FM251200 17005KT 9999 SCT012 BKN250 QNH3000INS

KNGP - TEMPO 2512/2515 VRB05KT BKN012 BKN250 T33/2420Z T27/2512Z FN20044 =

KNQI - TAF COR KNQI 2415/2515 17012KT 9999 FEW030 FEW250 QNH3003INS

KNQI - TEMPO 2416/2419 15014KT SCT045

KNQI - BECMG 2417/2419 15015G20KT 9999 FEW050 SCT250 QNH2996INS

KNQI - TEMPO 2420/2500 13017G23KT

KNQI - BECMG 2501/2503 16009KT 9999 FEW250 QNH3000INS

KNQI - TEMPO 2509/2513 VRB05KT 8000 BR BKN018 T36/2420Z T25/2511Z COR 1501 FN20042 =

KALI - TAF KALI 241121Z 2412/2512 15004KT 5SM BR SCT017

KALI - TEMPO 2412/2414 3SM BR BKN017

KALI - FM241400 17014G21KT P6SM SCT035

KALI - FM242000 14014G21KT P6SM FEW050

KALI - FM250100 14011KT P6SM SKC

KALI - FM250900 15005KT 5SM BR SCT025 =

GlobalAir.com is loading additional information.
 Current Weather at CRP
87.0 F° (30.6 C°)

South winds at 11.5 mph
Pressure:
30.10 in
Humidity:
70%
Wind:
South at 11.5 mph
Dew Point:
75.9 F° (24.4 C°)
Visibility:
10.00 mi
CRP NOAA Radar




Find All Airport Services Find A Hotel Find A Rental Car Find A Golf Course Find A Restaurant $100 Hamburger



Airport Weather Forecast for KCRP

Translated METAR for KCRP (1551 UTC)
METAR:
KCRP 241551Z COR Corpus Christi International, Corpus Christi, TX (KCRP). Aug 24, 1551Z, Corrected. Wind from 190° at 10 knots, 10 statute miles visibility, Few clouds at 2,900 feet, Few clouds at 25,000 feet, Temperature 33°C, Dewpoint 23°C, Altimeter is 30.10. Remarks: automated station with precipitation discriminator sea level pressure 1019.2 hectopascals hourly temp 32.8°C dewpoint 22.8°C
Conditions at:
KCRP (Corpus Christi Intl, TX) observed 1551 UTC 24 August 2016
Temperature:
87.0 F° (30.6 C°)
Dewpoint:
not reported - refer to area weather report
Pressure:
30.10 Hg
Winds:
not reported
Visibility:
10.00
Ceiling:
at least 12,000 feet AGL
Clouds:
not reported - refer to area weather report
Remarks:

Translated TAF for TAF for CRP is not available. Refer to local area forecast.
FBO's on the Field
FBO Company Facility Photos Services Transportation Aviation Fuel Prices: Prices include tax
Catering Weather Repair Courtesy Rental Type 100LL JetA JetA+ MOGAS 8087
 
Atlantic Aviation

This FBO has not yet been rated
FS:Independent
Last Updated: Aug-23
Login to update fuel prices
SS:
Contact Atlantic AviationMore FBO Information
 
Signature Flight Support

This FBO has not yet been rated
FS:Avfuel
Last Updated: Aug-23
Login to update fuel prices
SS:
Contact Signature Flight SupportMore FBO Information
 
Add another FBO Facility Photos Catering Weather Repair Courtesy Rental Type 100LL JetA JetA+ MOGAS 8087
Services Transportation Aviation Fuel Prices: Prices include tax


model-print
model-print
model-print
model-print